Airfield :
LOGIN :

Register | Disclaimer

   EN    FR    IT 

 










Legend :    VFR   Marginal VFR   IFR   Intensive IFR   Very Intensive IFR
Visi :
Ceiling :
>= 8 km
>= 3000ft
5 to 8 km
1000 to 3000 ft
1500m to 5 km
500 to 1000 ft
800 to 1500m
200 to 500 ft
< 800m
< 200 ft
Symbols :   Thunderstorms  Fog  Heavy snow  Heavy precipitations  Wind > 20 kt
SIGMETs :     Misc.  Thunderstorms  Icing  Turbulence  Mountain Waves  Volcanic Ashes






- Airport Elevation : 266 ft
- IATA code : NCL


EGNT - Newcastle

CURRENT METAR :
  • 130420Z 26013KT 9999 -RA BKN032 02/02 Q0967

EXPIRED METARs :
  • 130350Z 26014KT 9999 -RA BKN028 02/02 Q0967
  • 130320Z 26011KT 9999 -RA BKN028 02/02 Q0967
  • 130250Z 26011KT 9999 -RA BKN025 02/02 Q0967
  • 130150Z 27010KT 9999 BKN015 02/02 Q0967

TAF TAF EGNT
Valid from the 13 at 00:00 until the 14 at 00:00 UTC


122254Z 1300/1324 26003KT 9999 SCT007 BKN015
BECMG 1300/1303 27013KT
PROB30
TEMPO 1300/1306 6000 RA BKN007
TEMPO 1306/1318 27017G27KT
PROB30
TEMPO 1306/1324 8000 -SHRA BKN012
ATIS : +44 191 214 3400



MET'MAP, your aeronautical weather chart ! - Copyright ORBIFLY December 2007 - Disclaimer

ORBIFLY MET'MAP TEAM :

Programming & Development : Alexandra Zaïnal
Concept & original design : Baudouin d'Aumeries
Assistance for programming : Marc-Olivier Méhu
Technical & hardware support : Manuel Goepfert

Contact : metmap@orbifly.com




SOURCES & CREDITS :

   NOAA